createdAt,value
2022-12-18T00:00:18.092Z,25.63
2022-12-18T00:02:20.934Z,22.85
2022-12-18T00:04:27.089Z,21.77
2022-12-18T00:06:31.227Z,19.90
2022-12-18T00:08:34.692Z,19.52
2022-12-18T00:10:37.269Z,24.42
2022-12-18T00:12:40.250Z,18.60
2022-12-18T00:14:46.843Z,16.38
2022-12-18T00:16:49.705Z,19.80
2022-12-18T00:18:54.933Z,22.38
2022-12-18T00:21:00.917Z,24.65
2022-12-18T00:23:03.596Z,20.70
2022-12-18T00:25:06.742Z,20.05
2022-12-18T00:27:09.624Z,21.42
2022-12-18T00:29:15.174Z,20.30
2022-12-18T00:31:19.364Z,20.95
2022-12-18T00:33:22.139Z,15.90
2022-12-18T00:35:25.009Z,17.92
2022-12-18T00:37:29.051Z,18.20
2022-12-18T00:39:32.227Z,19.35
2022-12-18T00:41:53.449Z,17.48
2022-12-18T00:43:56.253Z,19.27
2022-12-18T00:45:58.964Z,18.80
2022-12-18T00:48:01.705Z,22.38
2022-12-18T00:50:04.964Z,21.88
2022-12-18T00:52:07.674Z,18.48
2022-12-18T00:54:11.862Z,14.88
2022-12-18T00:56:14.574Z,19.65
2022-12-18T00:58:18.812Z,18.15
2022-12-18T01:00:21.466Z,21.63
2022-12-18T01:02:24.156Z,18.75
2022-12-18T01:04:26.960Z,19.67
2022-12-18T01:06:29.666Z,21.15
2022-12-18T01:08:32.497Z,19.85
2022-12-18T01:10:36.643Z,12.52
2022-12-18T01:12:39.423Z,12.73
2022-12-18T01:14:42.116Z,15.73
2022-12-18T01:16:44.890Z,20.90
2022-12-18T01:18:47.997Z,18.05
2022-12-18T01:20:50.990Z,15.73
2022-12-18T01:22:53.691Z,15.63
2022-12-18T01:24:56.469Z,15.70
2022-12-18T01:27:00.473Z,16.80
2022-12-18T01:29:03.163Z,18.00
2022-12-18T01:31:17.498Z,20.83
2022-12-18T01:33:20.165Z,17.98
2022-12-18T01:35:23.069Z,17.88
2022-12-18T01:37:26.087Z,17.95
2022-12-18T01:39:28.816Z,17.35
2022-12-18T01:41:53.639Z,20.63
2022-12-18T01:43:59.389Z,17.65
2022-12-18T01:46:02.084Z,20.25
2022-12-18T01:48:08.350Z,22.63
2022-12-18T01:50:15.081Z,18.08
2022-12-18T01:52:19.013Z,17.15
2022-12-18T01:54:22.079Z,20.33
2022-12-18T01:56:25.019Z,16.70
2022-12-18T01:58:34.786Z,17.45
2022-12-18T02:00:38.835Z,16.27
2022-12-18T02:02:42.145Z,15.75
2022-12-18T02:04:49.377Z,17.83
2022-12-18T02:06:56.131Z,17.23
2022-12-18T02:09:10.016Z,17.63
2022-12-18T02:11:20.665Z,15.95
2022-12-18T02:13:34.126Z,14.75
2022-12-18T02:15:42.739Z,16.83
2022-12-18T02:17:51.054Z,15.45
2022-12-18T02:20:07.737Z,14.63
2022-12-18T02:22:25.806Z,17.95
2022-12-18T02:24:35.234Z,14.90
2022-12-18T02:26:45.984Z,14.35
2022-12-18T02:28:55.229Z,12.70
2022-12-18T02:31:01.527Z,14.25
2022-12-18T02:33:06.837Z,16.10
2022-12-18T02:35:13.400Z,13.63
2022-12-18T02:37:18.918Z,11.00
2022-12-18T02:39:24.325Z,13.77
2022-12-18T02:41:27.903Z,17.20
2022-12-18T02:43:32.030Z,14.27
2022-12-18T02:45:34.887Z,13.88
2022-12-18T02:47:40.116Z,14.55
2022-12-18T02:49:49.460Z,13.82
2022-12-18T02:51:55.796Z,15.45
2022-12-18T02:54:08.456Z,12.98
2022-12-18T02:56:19.056Z,15.48
2022-12-18T02:58:29.122Z,14.60
2022-12-18T03:00:39.766Z,13.93
2022-12-18T03:02:48.525Z,13.32
2022-12-18T03:04:59.312Z,14.05
2022-12-18T03:07:07.178Z,15.68
2022-12-18T03:09:12.879Z,13.13
2022-12-18T03:11:16.354Z,17.95
2022-12-18T03:13:25.607Z,13.18
2022-12-18T03:15:32.333Z,14.45
2022-12-18T03:17:37.260Z,14.43
2022-12-18T03:19:40.908Z,13.80
2022-12-18T03:21:47.566Z,16.45
2022-12-18T03:23:53.343Z,13.55
2022-12-18T03:26:07.119Z,13.55
2022-12-18T03:28:14.882Z,13.13
2022-12-18T03:32:27.078Z,13.65
2022-12-18T03:34:35.937Z,14.73
2022-12-18T03:36:38.698Z,15.27
2022-12-18T03:38:41.598Z,12.98
2022-12-18T03:40:56.389Z,13.05
2022-12-18T03:43:05.515Z,13.32
2022-12-18T03:45:12.407Z,16.65
2022-12-18T03:47:17.484Z,15.15
2022-12-18T03:49:27.184Z,14.32
2022-12-18T03:51:40.416Z,14.27
2022-12-18T03:53:50.669Z,13.23
2022-12-18T03:55:53.975Z,12.05
2022-12-18T03:57:57.474Z,12.68
2022-12-18T04:00:04.105Z,12.02
2022-12-18T04:02:09.118Z,12.38
2022-12-18T04:04:14.247Z,14.75
2022-12-18T04:06:18.852Z,14.77
2022-12-18T04:08:23.812Z,14.50
2022-12-18T04:10:26.482Z,16.23
2022-12-18T04:12:31.525Z,13.95
2022-12-18T04:14:36.545Z,17.60
2022-12-18T04:16:39.318Z,13.23
2022-12-18T04:18:42.042Z,13.35
2022-12-18T04:20:44.765Z,13.38
2022-12-18T04:22:47.782Z,10.90
2022-12-18T04:24:51.803Z,11.75
2022-12-18T04:26:54.528Z,11.13
2022-12-18T04:28:57.222Z,12.85
2022-12-18T04:30:59.947Z,16.27
2022-12-18T04:33:02.670Z,13.75
2022-12-18T04:35:07.647Z,12.75
2022-12-18T04:37:10.302Z,16.58
2022-12-18T04:39:12.933Z,13.23
2022-12-18T04:41:16.988Z,13.75
2022-12-18T04:43:19.765Z,14.45
2022-12-18T04:45:22.497Z,14.93
2022-12-18T04:47:25.184Z,14.45
2022-12-18T04:49:28.049Z,7.47
2022-12-18T04:51:30.834Z,14.57
2022-12-18T04:53:33.969Z,12.93
2022-12-18T04:55:36.738Z,12.45
2022-12-18T04:57:41.199Z,14.30
2022-12-18T04:59:43.903Z,13.73
2022-12-18T05:01:47.061Z,10.70
2022-12-18T05:03:49.971Z,11.05
2022-12-18T05:05:53.315Z,9.18
2022-12-18T05:07:55.930Z,8.23
2022-12-18T05:09:58.631Z,10.18
2022-12-18T05:12:01.299Z,13.32
2022-12-18T05:14:05.524Z,12.95
2022-12-18T05:16:09.060Z,10.60
2022-12-18T05:18:11.857Z,10.40
2022-12-18T05:20:14.503Z,11.57
2022-12-18T05:22:17.806Z,12.85
2022-12-18T05:24:20.465Z,11.77
2022-12-18T05:26:23.126Z,13.05
2022-12-18T05:28:27.551Z,13.18
2022-12-18T05:30:31.516Z,13.90
2022-12-18T05:32:34.221Z,14.32
2022-12-18T05:34:36.927Z,13.00
2022-12-18T05:36:39.573Z,12.80
2022-12-18T05:38:43.111Z,12.20
2022-12-18T05:40:45.745Z,13.30
2022-12-18T05:42:48.321Z,11.15
2022-12-18T05:44:51.050Z,12.32
2022-12-18T05:46:55.425Z,12.75
2022-12-18T05:49:01.513Z,13.20
2022-12-18T05:51:09.893Z,12.02
2022-12-18T05:53:12.993Z,11.90
2022-12-18T05:55:15.721Z,11.60
2022-12-18T05:57:18.469Z,13.23
2022-12-18T05:59:21.188Z,10.82
2022-12-18T06:01:26.323Z,10.32
2022-12-18T06:03:33.923Z,11.55
2022-12-18T06:05:38.169Z,12.65
2022-12-18T06:07:41.003Z,13.32
2022-12-18T06:09:43.849Z,13.30
2022-12-18T06:11:46.465Z,14.45
2022-12-18T06:13:57.638Z,13.73
2022-12-18T06:16:04.301Z,11.20
2022-12-18T06:18:07.157Z,13.65
2022-12-18T06:20:11.941Z,12.70
2022-12-18T06:22:14.580Z,10.73
2022-12-18T06:24:17.462Z,12.70
2022-12-18T06:26:26.187Z,13.07
2022-12-18T06:28:30.695Z,14.25
2022-12-18T06:30:33.505Z,12.43
2022-12-18T06:32:36.090Z,12.93
2022-12-18T06:34:39.796Z,11.32
2022-12-18T06:36:43.866Z,12.95
2022-12-18T06:38:46.465Z,12.07
2022-12-18T06:40:49.130Z,10.50
2022-12-18T06:42:51.927Z,15.70
2022-12-18T06:44:54.624Z,9.40
2022-12-18T06:46:57.398Z,11.80
2022-12-18T06:49:00.214Z,12.75
2022-12-18T06:51:03.415Z,13.00
2022-12-18T06:53:07.602Z,15.48
2022-12-18T06:55:10.706Z,13.15
2022-12-18T06:57:13.296Z,15.40
2022-12-18T06:59:16.634Z,12.07
2022-12-18T07:01:19.609Z,13.48
2022-12-18T07:03:22.371Z,14.63
2022-12-18T07:05:25.132Z,13.27
2022-12-18T07:07:27.864Z,13.75
2022-12-18T07:09:32.011Z,14.60
2022-12-18T07:11:35.273Z,12.80
2022-12-18T07:13:38.308Z,13.40
2022-12-18T07:15:41.379Z,12.65
2022-12-18T07:17:43.993Z,13.95
2022-12-18T07:19:46.718Z,14.57
2022-12-18T07:21:49.396Z,13.77
2022-12-18T07:23:52.393Z,14.13
2022-12-18T07:25:56.380Z,14.45
2022-12-18T07:27:59.059Z,13.27
2022-12-18T07:30:01.660Z,14.23
2022-12-18T07:32:04.497Z,12.73
2022-12-18T07:34:07.257Z,12.52
2022-12-18T07:36:11.641Z,11.30
2022-12-18T07:38:14.413Z,11.88
2022-12-18T07:40:17.057Z,12.60
2022-12-18T07:42:33.161Z,13.65
2022-12-18T07:44:35.892Z,15.30
2022-12-18T07:46:38.610Z,13.48
2022-12-18T07:48:41.266Z,12.55
2022-12-18T07:50:43.998Z,11.68
2022-12-18T07:52:46.866Z,12.80
2022-12-18T07:54:50.249Z,11.93
2022-12-18T07:56:53.526Z,13.65
2022-12-18T07:58:58.153Z,12.38
2022-12-18T08:01:05.286Z,14.20
2022-12-18T08:03:09.131Z,12.57
2022-12-18T08:05:12.069Z,14.13
2022-12-18T08:07:15.040Z,13.60
2022-12-18T08:09:17.862Z,14.07
2022-12-18T08:11:20.705Z,10.80
2022-12-18T08:13:24.539Z,12.48
2022-12-18T08:15:28.595Z,13.23
2022-12-18T08:17:31.291Z,13.85
2022-12-18T08:19:34.170Z,13.98
2022-12-18T08:21:36.855Z,11.55
2022-12-18T08:23:43.058Z,11.07
2022-12-18T08:25:46.274Z,12.90
2022-12-18T08:27:49.110Z,13.13
2022-12-18T08:29:51.836Z,14.05
2022-12-18T08:31:55.891Z,13.73
2022-12-18T08:33:59.233Z,14.82
2022-12-18T08:36:02.413Z,18.98
2022-12-18T08:38:05.414Z,15.60
2022-12-18T08:40:10.199Z,16.27
2022-12-18T08:42:30.834Z,14.93
2022-12-18T08:44:39.567Z,12.13
2022-12-18T08:46:44.278Z,13.70
2022-12-18T08:48:49.384Z,14.43
2022-12-18T08:50:56.737Z,12.20
2022-12-18T08:52:59.352Z,12.95
2022-12-18T08:55:02.268Z,13.82
2022-12-18T08:57:05.117Z,13.40
2022-12-18T08:59:07.788Z,15.52
2022-12-18T09:01:12.816Z,15.20
2022-12-18T09:03:16.125Z,14.18
2022-12-18T09:05:20.325Z,14.43
2022-12-18T09:07:22.971Z,13.48
2022-12-18T09:09:25.731Z,15.27
2022-12-18T09:11:30.063Z,14.27
2022-12-18T09:13:33.170Z,14.43
2022-12-18T09:15:35.843Z,14.05
2022-12-18T09:17:38.554Z,17.70
2022-12-18T09:19:41.319Z,15.00
2022-12-18T09:21:48.278Z,16.02
2022-12-18T09:23:52.246Z,16.42
2022-12-18T09:26:00.731Z,13.80
2022-12-18T09:28:03.729Z,15.15
2022-12-18T09:30:07.927Z,15.20
2022-12-18T09:32:10.706Z,14.55
2022-12-18T09:34:13.316Z,12.85
2022-12-18T09:36:18.525Z,13.02
2022-12-18T09:38:24.251Z,12.73
2022-12-18T09:40:31.049Z,12.88
2022-12-18T09:42:34.045Z,12.85
2022-12-18T09:44:45.024Z,13.55
2022-12-18T09:46:52.624Z,13.20
2022-12-18T09:48:59.316Z,12.13
2022-12-18T09:51:05.775Z,13.77
2022-12-18T09:53:14.743Z,12.27
2022-12-18T09:55:26.644Z,14.10
2022-12-18T09:57:35.433Z,14.55
2022-12-18T09:59:40.711Z,15.27
2022-12-18T10:01:44.635Z,12.43
2022-12-18T10:03:49.512Z,15.40
2022-12-18T10:06:02.520Z,16.58
2022-12-18T10:08:13.224Z,14.90
2022-12-18T10:10:27.459Z,14.70
2022-12-18T10:12:36.969Z,18.27
2022-12-18T10:14:48.978Z,16.50
2022-12-18T10:17:00.920Z,12.50
2022-12-18T10:19:17.469Z,13.95
2022-12-18T10:21:23.627Z,14.65
2022-12-18T10:23:30.318Z,9.10
2022-12-18T10:25:42.594Z,14.48
2022-12-18T10:27:45.629Z,9.60
2022-12-18T10:29:48.435Z,14.40
2022-12-18T10:31:51.169Z,9.90
2022-12-18T10:33:56.304Z,13.20
2022-12-18T10:35:59.802Z,13.20
2022-12-18T10:38:08.902Z,13.07
2022-12-18T10:40:20.146Z,12.48
2022-12-18T10:42:26.483Z,10.93
2022-12-18T10:44:29.211Z,14.15
2022-12-18T10:46:31.945Z,12.23
2022-12-18T10:48:38.078Z,10.63
2022-12-18T10:51:09.596Z,13.82
2022-12-18T10:53:07.120Z,13.00
2022-12-18T10:55:18.936Z,14.57
2022-12-18T10:57:37.958Z,13.88
2022-12-18T10:59:53.249Z,13.02
2022-12-18T11:01:58.067Z,12.27
2022-12-18T11:04:03.771Z,9.98
2022-12-18T11:06:09.645Z,13.70
2022-12-18T11:08:23.777Z,13.10
2022-12-18T11:10:30.797Z,13.25
2022-12-18T11:12:34.838Z,12.05
2022-12-18T11:14:47.383Z,13.05
2022-12-18T11:19:31.930Z,13.68
2022-12-18T11:21:41.743Z,12.45
2022-12-18T11:23:50.104Z,10.70
2022-12-18T11:25:55.795Z,10.30
2022-12-18T11:28:01.645Z,10.30
2022-12-18T11:30:12.225Z,11.23
2022-12-18T11:32:28.312Z,9.35
2022-12-18T11:34:34.053Z,6.85
2022-12-18T11:36:40.724Z,10.82
2022-12-18T11:38:46.360Z,9.32
2022-12-18T11:40:57.667Z,11.63
2022-12-18T11:43:09.152Z,13.63
2022-12-18T11:45:27.474Z,10.73
2022-12-18T11:47:38.854Z,12.07
2022-12-18T11:49:47.283Z,10.27
2022-12-18T11:51:56.664Z,10.30
2022-12-18T11:53:59.434Z,12.25
2022-12-18T11:56:14.456Z,13.88
2022-12-18T11:58:31.832Z,13.05
2022-12-18T12:00:38.368Z,12.00
2022-12-18T12:03:06.628Z,13.43
2022-12-18T12:05:32.315Z,12.55
2022-12-18T12:07:45.915Z,13.52
2022-12-18T12:09:57.563Z,13.13
2022-12-18T12:12:17.289Z,12.27
2022-12-18T12:14:36.330Z,10.82
2022-12-18T12:19:06.462Z,11.10
2022-12-18T12:21:18.842Z,11.93
2022-12-18T12:23:32.133Z,11.90
2022-12-18T12:25:41.702Z,11.90
2022-12-18T12:27:56.568Z,12.57
2022-12-18T12:30:07.153Z,13.05
2022-12-18T12:32:24.629Z,12.10
2022-12-18T12:34:33.635Z,11.77
2022-12-18T12:36:45.542Z,12.95
2022-12-18T12:38:52.664Z,13.48
2022-12-18T12:45:24.386Z,11.63
2022-12-18T12:47:30.402Z,13.52
2022-12-18T12:49:40.634Z,12.13
2022-12-18T12:51:47.085Z,13.07
2022-12-18T12:53:51.050Z,15.60
2022-12-18T12:55:55.625Z,15.75
2022-12-18T12:58:07.655Z,14.57
2022-12-18T13:00:14.768Z,12.30
2022-12-18T13:02:25.570Z,13.23
2022-12-18T13:04:37.222Z,15.95
2022-12-18T13:06:48.753Z,13.02
2022-12-18T13:08:57.465Z,13.38
2022-12-18T13:11:15.283Z,14.77
2022-12-18T13:15:32.764Z,11.88
2022-12-18T13:17:40.913Z,12.25
2022-12-18T13:19:44.078Z,11.75
2022-12-18T13:21:56.108Z,14.10
2022-12-18T13:24:16.059Z,15.32
2022-12-18T13:26:32.466Z,12.15
2022-12-18T13:28:55.198Z,14.05
2022-12-18T13:30:58.684Z,13.70
2022-12-18T13:36:25.221Z,13.90
2022-12-18T13:38:36.598Z,13.65
2022-12-18T13:41:30.557Z,13.35
2022-12-18T13:43:43.693Z,13.45
2022-12-18T13:45:51.275Z,12.07
2022-12-18T13:47:54.269Z,13.98
2022-12-18T13:49:58.801Z,12.98
2022-12-18T13:52:03.385Z,14.20
2022-12-18T13:54:19.954Z,13.70
2022-12-18T13:56:27.090Z,15.02
2022-12-18T13:58:32.080Z,14.13
2022-12-18T14:00:34.970Z,15.57
2022-12-18T14:02:37.995Z,14.95
2022-12-18T14:04:41.270Z,15.77
2022-12-18T14:06:44.101Z,15.30
2022-12-18T14:08:51.187Z,15.70
2022-12-18T14:10:54.098Z,15.05
2022-12-18T14:13:00.943Z,14.73
2022-12-18T14:15:15.389Z,13.35
2022-12-18T14:19:22.948Z,13.90
2022-12-18T14:21:28.790Z,16.65
2022-12-18T14:23:34.866Z,16.73
2022-12-18T14:25:38.930Z,15.07
2022-12-18T14:27:44.994Z,17.35
2022-12-18T14:29:47.619Z,16.13
2022-12-18T14:32:14.907Z,15.10
2022-12-18T14:34:20.292Z,14.43
2022-12-18T14:36:25.954Z,15.40
2022-12-18T14:38:30.815Z,14.00
2022-12-18T14:40:33.544Z,16.08
2022-12-18T14:42:37.658Z,15.10
2022-12-18T14:45:05.199Z,13.55
2022-12-18T14:47:03.110Z,14.80
2022-12-18T14:49:19.863Z,15.50
2022-12-18T14:51:24.195Z,14.48
2022-12-18T14:53:35.466Z,16.15
2022-12-18T14:55:38.312Z,15.85
2022-12-18T14:57:44.382Z,15.60
2022-12-18T14:59:47.088Z,15.82
2022-12-18T15:02:05.880Z,16.15
2022-12-18T15:04:27.421Z,16.88
2022-12-18T15:06:34.089Z,15.55
2022-12-18T15:08:38.996Z,15.98
2022-12-18T15:10:49.225Z,16.98
2022-12-18T15:13:10.173Z,16.02
2022-12-18T15:15:46.903Z,14.40
2022-12-18T15:17:50.737Z,15.00
2022-12-18T15:19:55.577Z,16.80
2022-12-18T15:22:04.413Z,16.58
2022-12-18T15:24:19.699Z,17.25
2022-12-18T15:26:23.786Z,15.38
2022-12-18T15:28:33.836Z,16.42
2022-12-18T15:30:36.843Z,16.17
2022-12-18T15:32:40.614Z,16.27
2022-12-18T15:34:43.344Z,11.05
2022-12-18T15:36:45.974Z,16.58
2022-12-18T15:38:49.107Z,17.38
2022-12-18T15:40:51.806Z,14.23
2022-12-18T15:43:14.430Z,17.10
2022-12-18T15:45:19.261Z,16.25
2022-12-18T15:47:22.777Z,17.30
2022-12-18T15:49:25.657Z,17.40
2022-12-18T15:51:31.084Z,18.75
2022-12-18T15:53:35.438Z,22.52
2022-12-18T15:56:00.853Z,22.67
2022-12-18T15:58:04.145Z,16.77
2022-12-18T16:00:07.987Z,17.65
2022-12-18T16:02:18.557Z,18.77
2022-12-18T16:04:24.583Z,18.85
2022-12-18T16:06:30.501Z,19.88
2022-12-18T16:08:39.149Z,16.77
2022-12-18T16:10:43.739Z,18.13
2022-12-18T16:12:46.615Z,21.00
2022-12-18T16:14:49.424Z,19.23
2022-12-18T16:16:54.766Z,18.02
2022-12-18T16:18:58.793Z,18.70
2022-12-18T16:21:01.473Z,19.83
2022-12-18T16:23:04.142Z,22.83
2022-12-18T16:25:07.471Z,14.43
2022-12-18T16:27:10.159Z,21.08
2022-12-18T16:29:12.964Z,18.42
2022-12-18T16:31:15.798Z,18.88
2022-12-18T16:33:18.487Z,17.60
2022-12-18T16:35:23.314Z,16.40
2022-12-18T16:37:26.118Z,21.83
2022-12-18T16:39:31.225Z,21.58
2022-12-18T16:41:34.276Z,22.75
2022-12-18T16:43:37.067Z,21.20
2022-12-18T16:45:39.908Z,20.55
2022-12-18T16:47:42.777Z,23.88
2022-12-18T16:49:46.291Z,25.80
2022-12-18T16:51:50.249Z,21.08
2022-12-18T16:53:52.897Z,24.70
2022-12-18T16:55:56.290Z,22.80
2022-12-18T16:57:58.941Z,21.73
2022-12-18T17:00:05.621Z,25.50
2022-12-18T17:02:15.571Z,19.45
2022-12-18T17:04:20.063Z,18.80
2022-12-18T17:06:23.374Z,19.80
2022-12-18T17:08:27.632Z,21.88
2022-12-18T17:10:30.403Z,16.75
2022-12-18T17:12:33.388Z,17.38
2022-12-18T17:14:36.906Z,18.90
2022-12-18T17:16:40.204Z,18.52
2022-12-18T17:18:43.120Z,20.55
2022-12-18T17:20:45.735Z,19.27
2022-12-18T17:22:48.373Z,17.58
2022-12-18T17:24:52.708Z,18.25
2022-12-18T17:26:55.807Z,20.05
2022-12-18T17:28:59.340Z,16.42
2022-12-18T17:31:02.527Z,18.25
2022-12-18T17:33:05.307Z,15.32
2022-12-18T17:35:08.818Z,15.98
2022-12-18T17:37:11.889Z,15.82
2022-12-18T17:39:20.428Z,15.10
2022-12-18T17:41:25.204Z,16.60
2022-12-18T17:43:27.936Z,14.50
2022-12-18T17:45:31.091Z,13.40
2022-12-18T17:47:36.713Z,12.80
2022-12-18T17:49:39.668Z,16.70
2022-12-18T17:51:43.396Z,13.35
2022-12-18T17:53:46.283Z,14.25
2022-12-18T17:55:55.433Z,13.85
2022-12-18T17:57:59.562Z,16.13
2022-12-18T18:00:02.249Z,8.73
2022-12-18T18:02:05.078Z,10.82
2022-12-18T18:04:08.095Z,12.60
2022-12-18T18:06:11.087Z,15.30
2022-12-18T18:08:13.849Z,10.77
2022-12-18T18:10:16.949Z,14.90
2022-12-18T18:12:37.227Z,15.80
2022-12-18T18:14:41.285Z,12.88
2022-12-18T18:16:45.798Z,17.48
2022-12-18T18:18:48.534Z,13.65
2022-12-18T18:20:51.325Z,14.18
2022-12-18T18:22:56.577Z,15.30
2022-12-18T18:24:59.519Z,14.60
2022-12-18T18:27:02.264Z,13.82
2022-12-18T18:29:07.136Z,11.35
2022-12-18T18:31:12.438Z,12.82
2022-12-18T18:33:15.258Z,11.45
2022-12-18T18:35:45.106Z,13.18
2022-12-18T18:37:40.769Z,15.98
2022-12-18T18:39:44.374Z,13.80
2022-12-18T18:41:48.180Z,13.18
2022-12-18T18:43:55.731Z,16.38
2022-12-18T18:48:02.682Z,16.95
2022-12-18T18:50:06.881Z,13.75
2022-12-18T18:52:09.545Z,16.38
2022-12-18T18:54:12.745Z,12.05
2022-12-18T18:56:56.249Z,15.32
2022-12-18T18:58:40.021Z,13.38
2022-12-18T19:00:42.857Z,10.27
2022-12-18T19:02:46.483Z,14.07
2022-12-18T19:04:50.612Z,10.70
2022-12-18T19:06:53.279Z,16.00
2022-12-18T19:08:57.595Z,14.10
2022-12-18T19:11:02.517Z,14.32
2022-12-18T19:13:24.367Z,14.73
2022-12-18T19:15:27.077Z,12.88
2022-12-18T19:17:30.746Z,9.40
2022-12-18T19:19:34.655Z,16.90
2022-12-18T19:21:39.148Z,15.98
2022-12-18T19:23:41.837Z,16.33
2022-12-18T19:25:44.865Z,13.32
2022-12-18T19:27:47.851Z,16.48
2022-12-18T19:29:51.107Z,18.95
2022-12-18T19:31:53.809Z,13.07
2022-12-18T19:33:56.516Z,12.40
2022-12-18T19:35:59.253Z,17.58
2022-12-18T19:38:03.555Z,13.82
2022-12-18T19:40:12.236Z,10.07
2022-12-18T19:42:18.907Z,12.10
2022-12-18T19:44:24.082Z,17.60
2022-12-18T19:46:26.727Z,11.98
2022-12-18T19:48:29.464Z,13.48
2022-12-18T19:50:32.250Z,11.55
2022-12-18T19:52:36.960Z,9.75
2022-12-18T19:54:41.086Z,12.50
2022-12-18T19:56:43.878Z,12.82
2022-12-18T19:58:46.925Z,12.23
2022-12-18T20:00:49.640Z,13.63
2022-12-18T20:02:55.356Z,13.27
2022-12-18T20:05:00.873Z,13.20
2022-12-18T20:07:03.597Z,12.32
2022-12-18T20:09:08.302Z,10.63
2022-12-18T20:11:12.817Z,10.82
2022-12-18T20:13:15.700Z,18.48
2022-12-18T20:15:18.477Z,14.05
2022-12-18T20:17:21.196Z,15.75
2022-12-18T20:19:25.494Z,12.60
2022-12-18T20:21:28.988Z,16.95
2022-12-18T20:23:32.225Z,10.38
2022-12-18T20:25:36.497Z,15.80
2022-12-18T20:27:40.516Z,10.65
2022-12-18T20:29:43.419Z,10.63
2022-12-18T20:31:46.109Z,15.65
2022-12-18T20:33:49.928Z,12.88
2022-12-18T20:35:53.777Z,11.23
2022-12-18T20:37:56.911Z,14.80
2022-12-18T20:39:59.982Z,16.88
2022-12-18T20:42:03.687Z,20.40
2022-12-18T20:44:15.541Z,14.40
2022-12-18T20:46:26.423Z,12.10
2022-12-18T20:48:29.737Z,15.23
2022-12-18T20:50:32.351Z,16.65
2022-12-18T20:52:35.076Z,16.55
2022-12-18T20:54:37.732Z,14.13
2022-12-18T20:56:40.402Z,12.40
2022-12-18T20:58:43.158Z,15.65
2022-12-18T21:00:47.491Z,11.93
2022-12-18T21:02:50.324Z,13.23
2022-12-18T21:04:53.368Z,16.73
2022-12-18T21:07:02.457Z,11.88
2022-12-18T21:09:05.901Z,15.75
2022-12-18T21:11:31.177Z,14.00
2022-12-18T21:13:34.507Z,19.23
2022-12-18T21:15:37.313Z,13.48
2022-12-18T21:17:44.246Z,10.88
2022-12-18T21:19:47.550Z,16.52
2022-12-18T21:21:52.051Z,15.20
2022-12-18T21:23:55.241Z,15.68
2022-12-18T21:26:16.235Z,11.52
2022-12-18T21:28:18.997Z,11.15
2022-12-18T21:30:21.876Z,15.15
2022-12-18T21:32:24.688Z,15.02
2022-12-18T21:34:32.572Z,10.18
2022-12-18T21:36:36.418Z,12.32
2022-12-18T21:38:39.063Z,14.93
2022-12-18T21:40:42.007Z,12.85
2022-12-18T21:43:02.423Z,11.15
2022-12-18T21:45:06.027Z,11.70
2022-12-18T21:47:21.638Z,12.05
2022-12-18T21:49:26.253Z,17.70
2022-12-18T21:51:30.237Z,16.20
2022-12-18T21:53:32.942Z,20.48
2022-12-18T21:55:35.588Z,17.75
2022-12-18T21:57:39.161Z,16.45
2022-12-18T21:59:44.238Z,16.15
2022-12-18T22:01:47.538Z,14.15
2022-12-18T22:03:50.378Z,13.02
2022-12-18T22:06:08.863Z,14.75
2022-12-18T22:08:13.767Z,13.10
2022-12-18T22:10:16.720Z,15.63
2022-12-18T22:12:35.479Z,14.82
2022-12-18T22:14:38.661Z,13.07
2022-12-18T22:16:41.941Z,13.18
2022-12-18T22:18:45.053Z,15.00
2022-12-18T22:20:48.094Z,15.32
2022-12-18T22:22:52.499Z,9.85
2022-12-18T22:24:56.805Z,12.30
2022-12-18T22:27:02.472Z,12.30
2022-12-18T22:29:23.876Z,13.63
2022-12-18T22:31:26.652Z,13.63
2022-12-18T22:33:29.539Z,14.55
2022-12-18T22:35:32.145Z,14.40
2022-12-18T22:37:34.906Z,12.65
2022-12-18T22:39:37.568Z,13.65
2022-12-18T22:41:42.349Z,14.70
2022-12-18T22:43:45.228Z,11.27
2022-12-18T22:45:48.954Z,12.35
2022-12-18T22:47:51.755Z,14.77
2022-12-18T22:49:54.441Z,12.27
2022-12-18T22:51:57.182Z,11.40
2022-12-18T22:53:59.813Z,10.13
2022-12-18T22:56:02.704Z,13.57
2022-12-18T22:58:07.298Z,15.57
2022-12-18T23:00:11.695Z,14.10
2022-12-18T23:02:14.612Z,14.63
2022-12-18T23:04:17.958Z,11.85
2022-12-18T23:06:21.524Z,16.60
2022-12-18T23:08:24.275Z,16.88
2022-12-18T23:10:27.353Z,13.60
2022-12-18T23:12:30.131Z,16.25
2022-12-18T23:14:34.261Z,15.23
2022-12-18T23:16:37.062Z,15.95
2022-12-18T23:18:39.792Z,16.23
2022-12-18T23:20:42.443Z,14.38
2022-12-18T23:22:45.492Z,15.80
2022-12-18T23:24:48.203Z,16.08
2022-12-18T23:26:51.019Z,16.40
2022-12-18T23:28:55.094Z,12.50
2022-12-18T23:31:06.624Z,15.63
2022-12-18T23:33:09.463Z,16.35
2022-12-18T23:35:14.279Z,14.93
2022-12-18T23:37:30.018Z,13.90
2022-12-18T23:39:40.953Z,15.40
2022-12-18T23:41:43.663Z,16.40
2022-12-18T23:43:47.048Z,14.60
2022-12-18T23:45:55.675Z,15.75
2022-12-18T23:47:59.987Z,11.35
2022-12-18T23:50:02.687Z,13.90
2022-12-18T23:52:05.574Z,16.95
2022-12-18T23:54:09.434Z,16.27
2022-12-18T23:56:13.736Z,12.00
2022-12-18T23:58:18.729Z,11.82
